Time;durP1;ratioP1;P1;durP2;ratioP2;P2;SDS_P1;SDS_P2;PMS_P1;PMS_P2;Temp;Humidity;BMP_temperature;BMP_pressure;BME280_temperature;BME280_humidity;BME280_pressure;Samples;Min_cycle;Max_cycle;Signal;HPM_P1;HPM_P2
2024/02/21 14:07:02;;;;;;;7.20;3.27;;;12.30;99.90;;;;;;5012279;28;1374376;-62
2024/02/21 14:09:30;;;;;;;3.77;2.80;;;12.30;99.90;;;;;;5026861;28;20473;-61
2024/02/21 14:12:20;;;;;;;4.87;3.50;;;12.30;99.90;;;;;;5027588;28;20476;-62
2024/02/21 14:14:47;;;;;;;7.77;3.77;;;12.30;99.90;;;;;;5027820;28;21004;-62
2024/02/21 14:17:16;;;;;;;12.83;4.10;;;12.30;99.90;;;;;;5027807;28;20453;-60
2024/02/21 14:19:44;;;;;;;15.03;4.67;;;12.30;99.90;;;;;;5026675;28;20493;-62
2024/02/21 14:22:12;;;;;;;7.50;3.70;;;12.30;99.90;;;;;;5028005;28;20462;-62
2024/02/21 14:24:40;;;;;;;6.13;3.40;;;12.30;99.90;;;;;;5026306;28;20444;-62
2024/02/21 14:27:08;;;;;;;7.53;3.37;;;12.30;99.90;;;;;;5027211;28;20468;-62
2024/02/21 14:32:13;;;;;;;6.23;3.90;;;12.40;99.90;;;;;;1159197;26;20843;-64
2024/02/21 14:34:41;;;;;;;5.73;3.00;;;12.40;99.90;;;;;;4939106;29;20508;-65
2024/02/21 14:37:08;;;;;;;5.23;4.13;;;12.50;99.90;;;;;;4939209;29;20489;-64
2024/02/21 14:39:36;;;;;;;4.60;3.30;;;12.50;99.90;;;;;;4937556;29;20540;-65
2024/02/21 14:42:03;;;;;;;9.10;4.10;;;12.60;99.90;;;;;;4938601;29;20443;-64
2024/02/21 14:44:30;;;;;;;5.00;3.10;;;12.40;99.90;;;;;;4938422;29;20447;-65
2024/02/21 14:46:57;;;;;;;10.07;4.37;;;12.40;99.90;;;;;;4937412;29;20445;-64
2024/02/21 14:49:25;;;;;;;5.70;3.33;;;12.50;99.90;;;;;;4937090;29;20500;-65
2024/02/21 14:51:52;;;;;;;7.30;4.27;;;12.50;99.90;;;;;;4937547;29;20851;-64
2024/02/21 14:54:19;;;;;;;9.43;4.50;;;12.40;99.90;;;;;;4937473;29;20453;-63
2024/02/21 14:56:47;;;;;;;8.53;4.03;;;12.30;99.90;;;;;;4937916;29;20445;-64
2024/02/21 14:59:14;;;;;;;4.30;3.23;;;12.30;99.90;;;;;;4937347;29;20473;-64
2024/02/21 15:01:44;;;;;;;8.70;3.70;;;12.30;99.90;;;;;;4937390;29;20812;-66
2024/02/21 15:04:11;;;;;;;8.03;3.50;;;12.30;99.90;;;;;;4937311;29;20495;-64
2024/02/21 15:06:39;;;;;;;9.10;3.97;;;12.20;99.90;;;;;;4936223;29;20523;-64
2024/02/21 15:09:07;;;;;;;10.30;4.00;;;12.20;99.90;;;;;;4937642;29;20480;-65
2024/02/21 15:11:34;;;;;;;8.17;3.47;;;12.10;99.90;;;;;;4937820;29;20918;-64
2024/02/21 15:14:02;;;;;;;11.70;3.97;;;12.20;99.90;;;;;;4937351;29;20499;-64
2024/02/21 15:16:29;;;;;;;9.47;3.57;;;12.10;99.90;;;;;;4937126;29;20451;-65
2024/02/21 15:18:56;;;;;;;5.80;3.50;;;12.10;99.90;;;;;;4936915;29;20449;-64
2024/02/21 15:21:23;;;;;;;7.77;2.93;;;12.10;99.90;;;;;;4937207;29;20442;-64
2024/02/21 15:23:50;;;;;;;9.30;4.60;;;12.10;99.90;;;;;;4937202;29;20529;-64
2024/02/21 15:26:17;;;;;;;8.17;3.50;;;12.10;99.90;;;;;;4937320;29;20527;-64
2024/02/21 15:28:44;;;;;;;6.80;3.60;;;12.10;99.90;;;;;;4937259;29;20512;-63
2024/02/21 15:31:23;;;;;;;12.67;3.67;;;12.10;99.90;;;;;;4936760;29;20524;-65
2024/02/21 15:33:50;;;;;;;5.33;2.87;;;12.10;99.90;;;;;;4936669;29;20499;-64
2024/02/21 15:36:17;;;;;;;11.60;3.63;;;12.00;99.90;;;;;;4936638;29;20798;-64
2024/02/21 15:38:44;;;;;;;9.27;3.53;;;11.90;99.90;;;;;;4936306;29;20871;-64
2024/02/21 15:41:13;;;;;;;7.87;4.33;;;11.80;99.90;;;;;;4936549;29;20520;-65
2024/02/21 15:43:40;;;;;;;7.03;3.90;;;11.80;99.90;;;;;;4937071;29;20527;-65
2024/02/21 15:46:07;;;;;;;6.97;3.67;;;11.70;99.90;;;;;;4936883;29;20445;-66
2024/02/21 15:48:35;;;;;;;5.97;3.57;;;11.70;99.90;;;;;;4937997;29;20452;-65
2024/02/21 15:51:04;;;;;;;7.40;3.60;;;11.60;99.90;;;;;;4935868;29;20576;-64
2024/02/21 15:53:31;;;;;;;9.03;4.03;;;11.70;99.90;;;;;;4936224;29;20503;-64
2024/02/21 15:55:58;;;;;;;9.93;4.27;;;11.60;99.90;;;;;;4936141;29;20540;-64
2024/02/21 15:58:24;;;;;;;7.30;4.67;;;11.60;99.90;;;;;;4936123;29;20484;-64
2024/02/21 16:00:52;;;;;;;6.20;3.63;;;11.50;99.90;;;;;;4935902;29;20496;-64
2024/02/21 16:03:19;;;;;;;4.10;3.17;;;11.50;99.90;;;;;;4935980;29;20492;-63
2024/02/21 16:05:48;;;;;;;6.17;4.73;;;11.50;99.90;;;;;;4935714;29;20480;-64
2024/02/21 16:08:18;;;;;;;8.80;4.00;;;11.50;99.90;;;;;;4936169;29;20548;-64
2024/02/21 16:10:45;;;;;;;8.60;4.93;;;11.40;99.90;;;;;;4935390;29;20511;-64
2024/02/21 16:13:11;;;;;;;11.60;4.10;;;11.40;99.90;;;;;;4935765;29;20515;-64
2024/02/21 16:15:38;;;;;;;8.03;4.17;;;11.30;99.90;;;;;;4935873;29;20517;-64
2024/02/21 16:18:06;;;;;;;9.20;3.97;;;11.30;99.90;;;;;;4935466;29;20460;-64
2024/02/21 16:20:33;;;;;;;12.40;3.87;;;11.20;99.90;;;;;;4935497;29;20500;-65
2024/02/21 16:23:03;;;;;;;9.20;4.00;;;11.20;99.90;;;;;;4938270;29;20491;-65
2024/02/21 16:25:30;;;;;;;11.33;5.10;;;11.20;99.90;;;;;;4935486;29;20541;-63
2024/02/21 16:27:57;;;;;;;9.23;4.63;;;11.10;99.90;;;;;;4935681;29;20942;-64
2024/02/21 16:30:24;;;;;;;13.60;4.63;;;11.10;99.90;;;;;;4934953;29;20560;-64
2024/02/21 16:32:52;;;;;;;7.37;4.47;;;11.10;99.90;;;;;;4935116;29;21017;-63
2024/02/21 16:35:19;;;;;;;11.50;4.67;;;11.00;99.90;;;;;;4935461;29;20461;-64
2024/02/21 16:37:47;;;;;;;13.53;3.80;;;11.00;99.90;;;;;;4935349;29;20460;-64
2024/02/21 16:40:18;;;;;;;7.37;4.90;;;10.90;99.90;;;;;;4935166;29;20893;-63
2024/02/21 16:42:45;;;;;;;5.97;4.27;;;10.90;99.90;;;;;;4935328;29;20448;-64
2024/02/21 16:45:12;;;;;;;10.63;4.73;;;10.80;99.90;;;;;;4935087;29;20544;-65
2024/02/21 16:47:39;;;;;;;4.80;3.57;;;10.80;99.90;;;;;;4935312;29;20492;-63
2024/02/21 16:50:07;;;;;;;8.33;4.93;;;10.70;99.90;;;;;;4934868;29;20496;-64
2024/02/21 16:52:33;;;;;;;9.40;4.50;;;10.70;99.90;;;;;;4934998;29;21023;-64
2024/02/21 16:55:00;;;;;;;13.23;5.40;;;10.70;99.90;;;;;;4935274;29;20445;-65
2024/02/21 16:57:29;;;;;;;5.10;3.80;;;10.70;99.90;;;;;;4936527;29;20881;-63
2024/02/21 16:59:55;;;;;;;10.10;4.50;;;10.60;99.90;;;;;;4934673;29;20823;-64
2024/02/21 17:02:24;;;;;;;8.60;4.23;;;10.60;99.90;;;;;;4935173;29;20532;-63
2024/02/21 17:04:51;;;;;;;7.00;4.37;;;10.50;99.90;;;;;;4934667;29;20453;-64
2024/02/21 17:07:18;;;;;;;6.33;3.70;;;10.50;99.90;;;;;;4934852;29;20543;-65
2024/02/21 17:09:45;;;;;;;5.97;3.70;;;10.40;99.90;;;;;;4934502;29;20897;-64
2024/02/21 17:12:12;;;;;;;7.93;3.83;;;10.40;99.90;;;;;;4934601;29;20477;-64
2024/02/21 17:14:40;;;;;;;5.33;3.70;;;10.30;99.90;;;;;;4935034;29;20484;-63
2024/02/21 17:17:07;;;;;;;8.03;3.73;;;10.30;99.90;;;;;;4934902;29;20496;-64
2024/02/21 17:19:35;;;;;;;5.10;3.37;;;10.20;99.90;;;;;;4934495;29;20900;-64
2024/02/21 17:22:02;;;;;;;9.83;4.03;;;10.20;99.90;;;;;;4934969;29;20496;-63
2024/02/21 17:24:29;;;;;;;4.83;3.07;;;10.20;99.90;;;;;;4934699;29;20830;-64
2024/02/21 17:26:56;;;;;;;5.47;3.03;;;10.20;99.90;;;;;;4934643;29;20445;-64
2024/02/21 17:29:23;;;;;;;7.97;3.83;;;10.20;99.90;;;;;;4933817;29;20559;-64
2024/02/21 17:31:51;;;;;;;4.73;3.40;;;10.10;99.90;;;;;;4934750;29;20493;-66
2024/02/21 17:34:20;;;;;;;8.27;3.47;;;10.10;99.90;;;;;;4937143;29;20455;-64
2024/02/21 17:36:48;;;;;;;6.27;3.80;;;10.10;99.90;;;;;;4935050;29;20453;-64
2024/02/21 17:39:18;;;;;;;11.23;3.40;;;10.10;99.90;;;;;;4934630;29;20839;-66
2024/02/21 17:41:45;;;;;;;8.50;3.70;;;10.00;99.90;;;;;;4934732;29;20483;-64
2024/02/21 17:44:11;;;;;;;9.23;4.70;;;9.90;99.90;;;;;;4934593;29;20457;-64
2024/02/21 17:46:43;;;;;;;10.47;4.60;;;9.90;99.90;;;;;;4934706;29;20875;-64
2024/02/21 17:49:11;;;;;;;7.57;4.07;;;9.90;99.90;;;;;;4934235;29;20465;-64
2024/02/21 17:51:38;;;;;;;6.87;3.80;;;9.90;99.90;;;;;;4934258;29;20485;-64
2024/02/21 17:54:05;;;;;;;7.37;3.53;;;10.00;99.90;;;;;;4935324;29;20954;-63
2024/02/21 17:56:32;;;;;;;12.73;4.30;;;9.90;99.90;;;;;;4935566;29;20518;-65
2024/02/21 17:58:59;;;;;;;8.10;4.30;;;9.90;99.90;;;;;;4935143;29;20456;-62
2024/02/21 18:01:26;;;;;;;12.07;3.90;;;9.90;99.90;;;;;;4935125;29;20475;-64
2024/02/21 18:03:53;;;;;;;7.20;3.90;;;9.80;99.90;;;;;;4935147;29;20485;-64
2024/02/21 18:06:21;;;;;;;6.17;4.50;;;9.80;99.90;;;;;;4934806;29;20541;-63
2024/02/21 18:08:48;;;;;;;11.87;5.70;;;9.80;99.90;;;;;;4937203;29;20537;-64
2024/02/21 18:11:15;;;;;;;9.93;4.23;;;9.80;99.90;;;;;;4934204;29;21009;-64
2024/02/21 18:13:41;;;;;;;10.13;4.67;;;9.80;99.90;;;;;;4934315;29;20980;-64
2024/02/21 18:16:09;;;;;;;7.10;4.30;;;9.70;99.90;;;;;;4934368;29;20544;-63
2024/02/21 18:18:35;;;;;;;10.83;4.60;;;9.70;99.90;;;;;;4934212;29;20540;-64
2024/02/21 18:21:02;;;;;;;7.80;3.93;;;9.70;99.90;;;;;;4933897;29;20903;-63
2024/02/21 18:23:30;;;;;;;9.60;4.23;;;9.60;99.90;;;;;;4934214;29;20485;-64
2024/02/21 18:25:58;;;;;;;9.50;4.77;;;9.60;99.90;;;;;;4934407;29;20448;-64
2024/02/21 18:28:25;;;;;;;8.30;4.23;;;9.60;99.90;;;;;;4934280;29;20509;-63
2024/02/21 18:30:52;;;;;;;7.87;5.00;;;9.50;99.90;;;;;;4933608;29;20463;-64
2024/02/21 18:33:19;;;;;;;8.10;4.83;;;9.50;99.90;;;;;;4933978;29;20544;-64
2024/02/21 18:35:46;;;;;;;8.33;5.17;;;9.50;99.90;;;;;;4934059;29;20504;-62
2024/02/21 18:38:13;;;;;;;7.97;4.40;;;9.50;99.90;;;;;;4934424;29;20547;-63
2024/02/21 18:40:41;;;;;;;8.90;4.60;;;9.50;99.90;;;;;;4936804;29;20555;-65
2024/02/21 18:43:08;;;;;;;9.20;5.97;;;9.50;99.90;;;;;;4940085;29;20438;-63
2024/02/21 18:45:35;;;;;;;11.93;5.30;;;9.50;99.90;;;;;;4937602;29;20552;-65
2024/02/21 18:48:02;;;;;;;8.70;6.13;;;9.40;99.90;;;;;;4937659;29;20535;-65
2024/02/21 18:50:29;;;;;;;8.87;5.47;;;9.40;99.90;;;;;;4936841;29;20499;-64
2024/02/21 18:52:59;;;;;;;11.70;5.17;;;9.40;99.90;;;;;;4937588;29;20488;-63
2024/02/21 18:55:26;;;;;;;9.60;5.23;;;9.40;99.90;;;;;;4937578;29;20446;-63
2024/02/21 18:57:54;;;;;;;5.90;4.50;;;9.40;99.90;;;;;;4937275;29;20448;-64
2024/02/21 19:00:24;;;;;;;9.03;6.13;;;9.40;99.90;;;;;;4937298;29;20547;-64
2024/02/21 19:02:51;;;;;;;9.33;5.30;;;9.40;99.90;;;;;;4936896;29;20452;-64
2024/02/21 19:05:21;;;;;;;7.20;4.90;;;9.40;99.90;;;;;;4937557;29;20452;-64
2024/02/21 19:07:48;;;;;;;8.33;4.40;;;9.40;99.90;;;;;;4937198;29;20499;-64
2024/02/21 19:10:15;;;;;;;7.03;4.50;;;9.40;99.90;;;;;;4936646;29;20552;-64
2024/02/21 19:12:42;;;;;;;7.57;4.83;;;9.40;99.90;;;;;;4935452;29;20901;-64
2024/02/21 19:15:10;;;;;;;7.93;5.00;;;9.40;99.90;;;;;;4930630;29;20535;-64
2024/02/21 19:17:37;;;;;;;7.10;5.67;;;9.40;99.90;;;;;;4935952;29;20455;-64
2024/02/21 19:20:09;;;;;;;12.87;6.67;;;9.50;99.90;;;;;;4937739;29;20450;-65
2024/02/21 19:22:36;;;;;;;14.87;6.53;;;9.40;99.90;;;;;;4936425;29;20434;-64
2024/02/21 19:25:06;;;;;;;6.07;4.70;;;9.40;99.90;;;;;;4922822;29;21002;-63
2024/02/21 19:27:33;;;;;;;6.90;5.20;;;9.40;99.90;;;;;;4922280;29;20552;-63
2024/02/21 19:30:00;;;;;;;10.37;5.10;;;9.40;99.90;;;;;;4934959;29;20500;-65
2024/02/21 19:32:30;;;;;;;11.63;5.07;;;9.40;99.90;;;;;;4934619;29;20984;-64
2024/02/21 19:34:57;;;;;;;9.63;5.57;;;9.40;99.90;;;;;;4935495;29;20480;-64
2024/02/21 19:37:24;;;;;;;7.67;4.20;;;9.40;99.90;;;;;;4936773;29;20453;-65
2024/02/21 19:39:51;;;;;;;9.30;4.57;;;9.40;99.90;;;;;;4935054;29;20560;-66
2024/02/21 19:42:17;;;;;;;8.50;5.00;;;9.30;99.90;;;;;;4936358;29;20505;-65
2024/02/21 19:44:44;;;;;;;9.93;4.33;;;9.30;99.90;;;;;;4936559;29;20540;-65
2024/02/21 19:47:13;;;;;;;5.90;4.83;;;9.30;99.90;;;;;;4926756;29;20543;-65
2024/02/21 19:49:41;;;;;;;8.80;4.20;;;9.30;99.90;;;;;;4916952;29;20565;-65
2024/02/21 19:52:08;;;;;;;6.37;4.83;;;9.30;99.90;;;;;;4934147;29;20969;-66
2024/02/21 19:54:35;;;;;;;7.67;5.20;;;9.30;99.90;;;;;;4931097;29;21191;-65
2024/02/21 19:57:02;;;;;;;6.03;4.83;;;9.30;99.90;;;;;;4917084;29;20472;-65
2024/02/21 19:59:29;;;;;;;11.57;5.13;;;9.30;99.90;;;;;;4917113;29;20891;-66
2024/02/21 20:01:57;;;;;;;8.43;5.77;;;9.30;99.90;;;;;;4921608;29;20445;-66
2024/02/21 20:04:24;;;;;;;10.53;6.80;;;9.30;99.90;;;;;;4924007;29;20452;-67
2024/02/21 20:06:52;;;;;;;11.27;6.27;;;9.40;99.90;;;;;;4935879;29;20468;-66
2024/02/21 20:09:19;;;;;;;7.33;5.67;;;9.40;99.90;;;;;;4936027;29;20909;-66
2024/02/21 20:11:46;;;;;;;8.53;5.30;;;9.40;99.90;;;;;;4940226;29;21168;-66
2024/02/21 20:14:13;;;;;;;10.30;4.60;;;9.50;99.90;;;;;;4939446;29;20505;-65
2024/02/21 20:16:40;;;;;;;10.50;4.33;;;9.40;99.90;;;;;;4935005;29;21294;-65
2024/02/21 20:19:10;;;;;;;9.33;5.33;;;9.40;99.90;;;;;;4927416;29;20472;-65
2024/02/21 20:21:39;;;;;;;7.10;5.97;;;9.30;99.90;;;;;;4940017;29;20513;-65
2024/02/21 20:24:08;;;;;;;13.30;5.90;;;9.30;99.90;;;;;;4932073;29;20464;-65
2024/02/21 20:26:35;;;;;;;10.80;5.77;;;9.30;99.90;;;;;;4950492;29;20479;-65
2024/02/21 20:29:13;;;;;;;7.70;5.10;;;9.40;99.90;;;;;;4951647;29;20487;-66
2024/02/21 20:31:41;;;;;;;8.70;5.03;;;9.30;99.90;;;;;;4953695;29;20451;-65
2024/02/21 20:34:09;;;;;;;12.30;5.57;;;9.30;99.90;;;;;;4952230;29;20874;-67
2024/02/21 20:36:35;;;;;;;9.10;5.03;;;9.40;99.90;;;;;;4946988;29;20956;-66
2024/02/21 20:39:03;;;;;;;6.50;4.50;;;9.40;99.90;;;;;;4939104;29;20977;-65
2024/02/21 20:41:31;;;;;;;7.90;4.57;;;9.50;99.90;;;;;;4939514;29;20805;-65
2024/02/21 20:43:58;;;;;;;8.83;5.33;;;9.40;99.90;;;;;;4939906;29;20477;-65
2024/02/21 20:46:25;;;;;;;11.20;4.90;;;9.40;99.90;;;;;;4940830;29;20497;-66
2024/02/21 20:48:52;;;;;;;10.47;4.23;;;9.40;99.90;;;;;;4939854;29;20516;-66
2024/02/21 20:51:19;;;;;;;6.37;4.20;;;9.50;99.90;;;;;;4939226;29;20448;-66
2024/02/21 20:53:46;;;;;;;11.50;4.30;;;9.50;99.90;;;;;;4918192;29;20514;-65
2024/02/21 20:56:12;;;;;;;4.70;3.60;;;9.50;99.90;;;;;;4918502;29;20446;-66
2024/02/21 20:58:41;;;;;;;6.67;4.50;;;9.50;99.90;;;;;;4921855;29;20507;-66
2024/02/21 21:01:08;;;;;;;5.37;4.00;;;9.50;99.90;;;;;;4937254;29;20541;-66
2024/02/21 21:03:35;;;;;;;5.03;3.97;;;9.40;99.90;;;;;;4936377;29;20445;-65
2024/02/21 21:06:02;;;;;;;6.57;4.40;;;9.40;99.90;;;;;;4937112;29;20508;-65
2024/02/21 21:08:30;;;;;;;4.57;3.10;;;9.40;99.90;;;;;;4938305;29;20473;-64
2024/02/21 21:10:56;;;;;;;14.37;3.70;;;9.50;99.90;;;;;;4939649;29;20974;-66
2024/02/21 21:13:23;;;;;;;7.60;4.13;;;9.50;99.90;;;;;;4937983;29;20938;-65
2024/02/21 21:15:52;;;;;;;10.20;5.33;;;9.60;99.90;;;;;;4937623;29;20637;-65
2024/02/21 21:18:19;;;;;;;8.73;4.70;;;9.60;99.90;;;;;;4936502;29;20812;-65
2024/02/21 21:20:46;;;;;;;5.40;3.33;;;9.60;99.90;;;;;;4937512;29;20464;-65
2024/02/21 21:23:13;;;;;;;5.17;2.90;;;9.60;99.90;;;;;;4939713;29;20533;-64
2024/02/21 21:25:40;;;;;;;8.90;5.17;;;9.60;99.90;;;;;;4939337;29;20457;-65
2024/02/21 21:28:08;;;;;;;3.20;2.90;;;9.60;99.90;;;;;;4937793;29;20484;-67
2024/02/21 21:30:35;;;;;;;6.10;3.63;;;9.60;99.90;;;;;;4937812;29;20555;-64
2024/02/21 21:33:04;;;;;;;5.07;3.00;;;9.60;99.90;;;;;;4937586;29;20489;-65
2024/02/21 21:35:31;;;;;;;7.20;3.70;;;9.60;99.90;;;;;;4938405;29;20451;-65
2024/02/21 21:37:59;;;;;;;4.30;3.13;;;9.60;99.90;;;;;;4936879;29;20441;-66
2024/02/21 21:40:29;;;;;;;9.60;4.03;;;9.60;99.90;;;;;;4931230;29;20825;-65
2024/02/21 21:42:55;;;;;;;4.20;3.40;;;9.70;99.90;;;;;;4919197;29;20454;-66
2024/02/21 21:45:23;;;;;;;8.57;4.77;;;9.70;99.90;;;;;;4918594;29;20458;-64
2024/02/21 21:47:50;;;;;;;7.30;2.60;;;9.70;99.90;;;;;;4918460;29;20450;-64
2024/02/21 21:50:18;;;;;;;15.07;3.27;;;9.70;99.90;;;;;;4917883;29;20478;-66
2024/02/21 21:52:46;;;;;;;3.77;3.03;;;9.70;99.90;;;;;;4928131;29;20546;-66
2024/02/21 21:55:13;;;;;;;5.40;2.80;;;9.70;99.90;;;;;;4936125;29;20456;-64
2024/02/21 21:57:40;;;;;;;6.17;3.30;;;9.70;99.90;;;;;;4937925;29;20512;-65
2024/02/21 22:00:09;;;;;;;4.30;2.90;;;9.70;99.90;;;;;;4935351;29;20542;-65
2024/02/21 22:02:36;;;;;;;5.00;2.80;;;9.80;99.90;;;;;;4936303;29;20441;-65
2024/02/21 22:05:03;;;;;;;8.10;3.27;;;9.80;99.90;;;;;;4935966;29;20482;-65
2024/02/21 22:07:31;;;;;;;10.00;3.03;;;9.80;99.90;;;;;;4928731;29;20510;-65
2024/02/21 22:09:58;;;;;;;5.50;3.27;;;9.80;99.90;;;;;;4917029;29;20472;-65
2024/02/21 22:12:25;;;;;;;8.60;3.37;;;9.80;99.90;;;;;;4916788;29;20540;-67
2024/02/21 22:14:52;;;;;;;5.97;2.90;;;9.80;99.90;;;;;;4917719;29;20438;-65
2024/02/21 22:17:19;;;;;;;6.37;2.90;;;9.80;99.90;;;;;;4921339;29;20464;-65
2024/02/21 22:19:46;;;;;;;4.43;2.30;;;9.90;99.90;;;;;;4920758;29;20480;-65
2024/02/21 22:22:13;;;;;;;7.63;3.60;;;9.90;99.90;;;;;;4932316;29;20483;-66
2024/02/21 22:24:44;;;;;;;13.43;4.20;;;9.90;99.90;;;;;;4931737;29;20505;-67
2024/02/21 22:27:11;;;;;;;4.23;2.60;;;9.90;99.90;;;;;;4921712;29;20501;-65
2024/02/21 22:29:39;;;;;;;6.50;3.20;;;10.00;99.90;;;;;;4920405;29;20476;-65
2024/02/21 22:32:09;;;;;;;7.87;2.90;;;10.00;99.90;;;;;;4920759;29;20454;-66
2024/02/21 22:34:35;;;;;;;13.97;3.60;;;10.00;99.90;;;;;;4920627;29;20465;-65
2024/02/21 22:37:02;;;;;;;6.47;3.10;;;10.00;99.90;;;;;;4926872;29;20484;-67
2024/02/21 22:39:29;;;;;;;4.87;3.03;;;10.00;99.90;;;;;;4939732;29;21069;-65
2024/02/21 22:41:58;;;;;;;4.60;2.63;;;10.00;99.90;;;;;;4940897;29;20461;-65
2024/02/21 22:44:25;;;;;;;6.53;3.00;;;10.00;99.90;;;;;;4938032;29;20443;-64
2024/02/21 22:46:52;;;;;;;3.93;2.90;;;10.00;99.90;;;;;;4938040;29;20496;-65
2024/02/21 22:49:19;;;;;;;2.20;2.00;;;10.00;99.90;;;;;;4937875;29;20546;-65
2024/02/21 22:51:46;;;;;;;5.80;2.87;;;10.00;99.90;;;;;;4934126;29;20779;-65
2024/02/21 22:54:15;;;;;;;14.10;5.13;;;10.00;99.90;;;;;;4935619;29;20481;-65
2024/02/21 22:56:42;;;;;;;4.13;3.70;;;10.30;99.90;;;;;;4938175;29;20601;-65
2024/02/21 22:59:11;;;;;;;6.67;2.90;;;10.50;99.90;;;;;;4938615;29;20496;-65
2024/02/21 23:01:38;;;;;;;6.83;2.50;;;10.40;99.90;;;;;;4938983;29;20492;-65
2024/02/21 23:04:06;;;;;;;4.60;2.70;;;10.30;99.90;;;;;;4938594;29;20452;-66
2024/02/21 23:06:33;;;;;;;6.93;3.00;;;10.30;99.90;;;;;;4939017;29;20538;-65
2024/02/21 23:09:03;;;;;;;10.23;4.13;;;10.20;99.90;;;;;;4938654;29;20445;-65
2024/02/21 23:11:30;;;;;;;11.43;5.50;;;10.10;99.90;;;;;;4937489;29;20824;-65
2024/02/21 23:13:57;;;;;;;10.77;4.47;;;10.10;99.90;;;;;;4937783;29;20727;-65
2024/02/21 23:16:25;;;;;;;5.80;3.27;;;10.10;99.90;;;;;;4938313;29;20483;-66
2024/02/21 23:18:55;;;;;;;5.87;3.03;;;10.10;99.90;;;;;;4937465;29;20464;-65
2024/02/21 23:21:22;;;;;;;8.07;2.73;;;10.10;99.90;;;;;;4937032;29;20484;-66
2024/02/21 23:23:48;;;;;;;8.53;2.80;;;10.10;99.90;;;;;;4936905;29;20473;-66
2024/02/21 23:26:15;;;;;;;8.30;2.90;;;10.10;99.90;;;;;;4936580;29;20798;-66
2024/02/21 23:28:43;;;;;;;7.80;3.00;;;10.00;99.90;;;;;;4937211;29;20897;-66
2024/02/21 23:31:11;;;;;;;2.50;2.27;;;10.00;99.90;;;;;;4936998;29;20469;-65
2024/02/21 23:33:39;;;;;;;6.33;3.20;;;10.00;99.90;;;;;;4937059;29;20576;-65
2024/02/21 23:36:07;;;;;;;4.60;3.13;;;9.90;99.90;;;;;;4936745;29;20461;-65
2024/02/21 23:38:33;;;;;;;8.67;3.00;;;9.90;99.90;;;;;;4936894;29;20484;-65
2024/02/21 23:41:00;;;;;;;5.10;2.43;;;9.90;99.90;;;;;;4936224;29;21021;-66
2024/02/21 23:43:28;;;;;;;6.80;3.40;;;9.90;99.90;;;;;;4936126;29;20477;-67
2024/02/21 23:45:56;;;;;;;5.47;2.60;;;9.90;99.90;;;;;;4936743;29;20445;-65
2024/02/21 23:48:23;;;;;;;5.60;3.03;;;9.90;99.90;;;;;;4936153;29;20449;-65
2024/02/21 23:50:51;;;;;;;7.37;2.40;;;9.90;99.90;;;;;;4935987;29;20472;-65
2024/02/21 23:53:18;;;;;;;6.93;2.60;;;9.90;99.90;;;;;;4936246;29;20520;-64
2024/02/21 23:55:45;;;;;;;3.30;2.13;;;9.90;99.90;;;;;;4936623;29;20476;-66
2024/02/21 23:58:12;;;;;;;4.27;2.87;;;9.90;99.90;;;;;;4936134;29;20448;-65
